Ana Sayfa
METAR-TAF:

METAR-TAF

Havaalanları :

Ponta Delgada, Azor Adaları, Portekiz

Enlem: 37-44N, Boylam: 025-42W, yükseklik: 71 m

Güncel hava durumu gözlemi

Rapor saat 14:00 UTC de 42 dakika önce yapıldı.
Rüzgar güneydoğudan 14 kt
Sıcaklık 25°C
Nem 74%
Basınç 1018 hPa
Görüş mesafesi 10 km veya daha fazla
2000 ft yükseklikte az bulutlu

METAR: LPPD 261400Z 13014KT 9999 FEW020 25/20 Q1018

Saat: 14:42 (14:42 UTC)

Tahmin

Rapor saat 11:00 UTC de 3 saat ve 42 dakika önce yapıldı.
Ayın 26'si saat 12 UTC'den ayın 27'si saat 12 UTC'ye kadar geçerli Tahmin
Rüzgar güneydoğudan 15 kt
Görüş mesafesi 10 km veya daha fazla
2500 ft yükseklikte parçalı bulutlu
Olasılık 40% :
Geçici
ayın 26'si saat 12 UTC'den ayın 27'si saat 12 UTC'ye kadar
Görüş mesafesi: 8000 m
1500 ft yükseklikte parçalı çok bulutlu
2000 ft yükseklikte az bulutlu, Kümülonimbus.
sağanak yağmurlar

TAF: LPPD 261100Z 2612/2712 14015KT 9999 SCT025 PROB40 TEMPO 2612/2712 8000 SHRA BKN015 FEW020CB

4.000'den fazla havaalanı için hava durumu gözlemleri ve tahminleri (METAR ve TAF raporları).

Kullanılabilir istasyonlar harita üzerinde sarı ve kırmızı noktalarla gösterilir.

İstasyonun adını görmek için fareyi noktanın üzerinde gezdirin.

Sonrasında hava gözlem ve tahminlerini görmek için tıklayın.

Haritayı değiştirmek için: yaklaştırmak için siyah artı işaretli yeşil düğmeye ve uzaklaştırmak için de eksi işaretli düğmeye hızla tıklayın; bitişik haritalar için yeşil okları kullanın.


METAR-TAF: